Bei Facebook empfehlenBei Twitter postenGoogle plusPinterest

Das Wetter im Erzgebirge am 14.06.2015

Wetter und Klima am 14.06.2015 Holzhau im Erzgebirge (630m ü.NN)
Letzte gemessene Temperatur und Uhrzeit der Messung23:45:00 Uhr14.40 °C
Temperatur (Maximum / Höchstwert) und Uhrzeit der Messung15:00:00 Uhr25.60 °C
Temperatur (Minimum / Tiefstwert) und Uhrzeit der Messung05:45:0011.20 °C
Errechneter Absolutwert der Temperaturschwankungen zwischen Tmin und Tmax des Tages14.40 K
Errechnete Tagesmitteltemperatur18.45957 °C
Gesamt - Niederschlag des Tages (in flüssiger Form)0.51 Liter / m²
Luftdruck (Maximum / Höchstwert) und Zeitpunkt der Messung08:45:00 Uhr1010.90 hPa
Luftdruck (Minimum / Tiefstwert) und Zeitpunkt der Messung18:45:00 Uhr1007.80 hPa
Errechneter Absolutwert der Luftdruckschwankungen des Tages3.10 hPa
Höchste gemessene Windgeschwindigkeit und Uhrzeit der Messung23:45:00 Uhr0.00 km/h
Errechnete Windhäufigkeit in Relation zu den Messwerten des Tages0.00000 %
Niedrigste Windkühle (Windchill) und Zeitpunkt der Messung05:45:00 Uhr11.20 °C
Taupunkt (Maximum / Höchstwert) und Uhrzeit der Messung07:45:00 Uhr16.60 °C
Taupunkt (Minimum / Tiefstwert) und Uhrzeit der Messung05:45:009.90 °C
Anzahl der automatisch eingelesenen Messwerte 94

Detaillierte Wetter- und Klima- Messwerte für den 14.06.2015 in Holzhau im Erzgebirge (630m ü.NN)
ZeitTemperaturLuftdruckRel. LuftfeuchteWindWindrichtungWindchillTaupunktNiederschlag l/m²
23:45:0014.40 °C1010.20 hPa79.00 %10.80 °C0.51
23:30:0014.90 °C1010.00 hPa78.00 %11.10 °C0.51
23:15:0015.40 °C1009.90 hPa78.00 %11.60 °C0.51
23:00:0015.90 °C1009.80 hPa74.00 %11.30 °C0.51
22:45:0016.40 °C1009.70 hPa72.00 %11.30 °C0.51
22:30:0016.70 °C1009.30 hPa70.00 %11.20 °C0.51
22:15:0017.10 °C1009.00 hPa69.00 %11.40 °C0.51
22:00:0017.50 °C1008.90 hPa68.00 %11.50 °C0.51
21:45:0018.00 °C1009.00 hPa68.00 %12.00 °C0.51
21:30:0018.60 °C1008.60 hPa68.00 %12.60 °C0.51
21:15:0018.90 °C1008.80 hPa69.00 %13.10 °C0.51
21:00:0018.90 °C1008.40 hPa68.00 %12.90 °C0.51
20:45:0019.30 °C1008.20 hPa67.00 %13.00 °C0.51
20:30:0020.00 °C1008.10 hPa66.00 %13.50 °C0.51
20:15:0020.50 °C1008.20 hPa65.00 %13.70 °C0.51
20:00:0021.20 °C1008.10 hPa64.00 %14.10 °C0.51
19:45:0021.80 °C1008.00 hPa63.00 %14.40 °C0.51
19:30:0022.10 °C1008.00 hPa62.00 %14.50 °C0.51
19:15:0022.10 °C1007.90 hPa62.00 %14.50 °C0.51
19:00:0022.40 °C1008.00 hPa62.00 %14.80 °C0.51
18:45:0022.70 °C1007.80 hPa63.00 %15.30 °C0.51
18:30:0022.50 °C1007.80 hPa64.00 %15.40 °C0.51
18:15:0021.90 °C1008.10 hPa65.00 %15.00 °C0.51
18:00:0022.20 °C1008.20 hPa67.00 %15.80 °C0.51
17:45:0021.30 °C1008.60 hPa74.00 %16.50 °C0.51
17:30:0020.90 °C1008.60 hPa68.00 %14.80 °C0.51
17:15:0022.70 °C1008.80 hPa61.00 %14.80 °C0.51
17:00:0023.20 °C1008.80 hPa60.00 %15.00 °C0.51
16:45:0023.90 °C1009.10 hPa59.00 %15.40 °C0.51
16:30:0023.40 °C1009.20 hPa60.00 %15.20 °C0.51
16:15:0024.10 °C1009.30 hPa57.00 %15.10 °C0.51
16:00:0024.90 °C1009.30 hPa57.00 %15.80 °C0.51
15:45:0024.90 °C1009.40 hPa59.00 %16.30 °C0.51
15:30:0024.40 °C1009.50 hPa59.00 %15.90 °C0.51
15:15:0025.20 °C1009.60 hPa56.00 %15.80 °C0.51
15:00:0025.60 °C1009.80 hPa57.00 %16.40 °C0.51
14:45:0025.50 °C1009.80 hPa57.00 %16.40 °C0.51
14:30:0024.90 °C1009.70 hPa59.00 %16.30 °C0.51
14:15:0024.10 °C1009.80 hPa61.00 %16.10 °C0.51
14:00:0023.60 °C1010.00 hPa62.00 %15.90 °C0.51
13:45:0024.00 °C1010.10 hPa57.00 %15.00 °C0.51
13:30:0024.30 °C1010.30 hPa58.00 %15.50 °C0.51
13:15:0023.90 °C1010.10 hPa59.00 %15.40 °C0.51
13:00:0023.40 °C1010.00 hPa61.00 %15.50 °C0.51
12:45:0022.20 °C1010.10 hPa65.00 %15.30 °C0.51
12:30:0021.90 °C1010.10 hPa63.00 %14.50 °C0.51
12:15:0022.10 °C1010.30 hPa66.00 %15.50 °C0.51
12:00:0022.10 °C1010.40 hPa64.00 %15.00 °C0.51
11:45:0021.60 °C1010.30 hPa65.00 %14.70 °C0.51
11:30:0022.30 °C1010.50 hPa63.00 %14.90 °C0.51
11:15:0021.90 °C1010.40 hPa68.00 %15.70 °C0.51
11:00:0021.00 °C1010.60 hPa68.00 %14.90 °C0.51
10:45:0021.00 °C1010.50 hPa68.00 %14.90 °C0.51
10:30:0021.20 °C1010.40 hPa70.00 %15.50 °C0.51
10:15:0020.60 °C1010.50 hPa70.00 %14.90 °C0.51
10:00:0020.10 °C1010.60 hPa72.00 %14.90 °C0.51
09:45:0019.90 °C1010.60 hPa74.00 %15.10 °C0.51
09:30:0019.40 °C1010.50 hPa75.00 %14.90 °C0.51
09:15:0019.30 °C1010.60 hPa77.00 %15.20 °C0.51
09:00:0019.10 °C1010.80 hPa78.00 %15.20 °C0.51
08:45:0018.90 °C1010.90 hPa79.00 %15.20 °C0.51
08:30:0019.00 °C1010.50 hPa81.00 %15.70 °C0.51
07:45:0017.90 °C1010.40 hPa92.00 %16.60 °C0.51
07:30:0016.40 °C1010.40 hPa93.00 %15.30 °C0.51
07:15:0014.80 °C1010.10 hPa93.00 %13.70 °C0.51
07:00:0013.30 °C1010.00 hPa93.00 %12.20 °C0.51
06:45:0012.50 °C1010.00 hPa93.00 %11.40 °C0.51
06:30:0012.10 °C1010.10 hPa93.00 %11.00 °C0.51
06:15:0011.60 °C1010.10 hPa93.00 %10.50 °C0.51
06:00:0011.40 °C1010.10 hPa93.00 %10.30 °C 
05:45:0011.20 °C1010.00 hPa92.00 %9.90 °C 
05:30:0011.20 °C1010.10 hPa92.00 %9.90 °C 
05:15:0011.50 °C1010.00 hPa92.00 %10.20 °C 
05:00:0011.90 °C1009.80 hPa92.00 %10.60 °C 
04:45:0012.40 °C1009.90 hPa92.00 %11.10 °C 
04:30:0012.50 °C1010.00 hPa92.00 %11.20 °C 
04:15:0012.80 °C1010.00 hPa93.00 %11.70 °C 
04:00:0012.60 °C1010.10 hPa92.00 %11.30 °C 
03:45:0012.60 °C1010.00 hPa92.00 %11.30 °C 
03:30:0012.80 °C1010.00 hPa92.00 %11.50 °C 
03:15:0013.30 °C1010.30 hPa92.00 %12.00 °C 
03:00:0013.60 °C1010.10 hPa93.00 %12.50 °C 
02:45:0013.50 °C1010.30 hPa92.00 %12.20 °C 
02:30:0013.40 °C1010.30 hPa92.00 %12.10 °C 
02:15:0013.30 °C1010.10 hPa92.00 %12.00 °C 
02:00:0013.30 °C1010.10 hPa92.00 %12.00 °C 
01:45:0013.50 °C1010.30 hPa92.00 %12.20 °C 
01:30:0013.80 °C1010.20 hPa92.00 %12.50 °C 
01:15:0013.90 °C1010.20 hPa92.00 %12.60 °C 
01:00:0013.90 °C1010.10 hPa92.00 %12.60 °C 
00:45:0013.90 °C1010.30 hPa92.00 %12.60 °C 
00:30:0013.90 °C1010.30 hPa92.00 %12.60 °C 
00:15:0013.60 °C1010.40 hPa92.00 %12.30 °C 
00:00:0013.60 °C1010.30 hPa91.00 %12.20 °C 

Permanenter Link zu dieser Seite: Wetter im Erzgebirge am 14.06.2015
Performance-Info: Die Erstellung der Seite / Statistik(en) / Tabelle(n) erforderte 5 Datenbankserver-Abfrage(n) und dauerte 70 Millisekunden. (Dieser Messwert ist von der Gesamt-Auslastung des Servers abhängig.)
Erzgebirge - Wetter | Erzgebirge - Wetter (Mobilgeräte) | Komplette Klimadatenbank